sensor_id;sensor_type;location;lat;lon;timestamp;P1;durP1;ratioP1;P2;durP2;ratioP2
69081;SDS011;56184;51.986;5.760;2023-03-01T00:01:12;5.28;;;2.33;;
69081;SDS011;56184;51.986;5.760;2023-03-01T00:03:39;4.50;;;2.30;;
69081;SDS011;56184;51.986;5.760;2023-03-01T00:06:06;4.13;;;2.60;;
69081;SDS011;56184;51.986;5.760;2023-03-01T00:08:32;2.50;;;2.20;;
69081;SDS011;56184;51.986;5.760;2023-03-01T00:11:18;3.55;;;2.30;;
69081;SDS011;56184;51.986;5.760;2023-03-01T00:13:46;2.60;;;2.20;;
69081;SDS011;56184;51.986;5.760;2023-03-01T00:16:14;2.90;;;2.22;;
69081;SDS011;56184;51.986;5.760;2023-03-01T00:18:42;2.72;;;2.25;;
69081;SDS011;56184;51.986;5.760;2023-03-01T00:21:08;5.10;;;2.47;;
69081;SDS011;56184;51.986;5.760;2023-03-01T00:23:34;3.45;;;2.38;;
69081;SDS011;56184;51.986;5.760;2023-03-01T00:26:00;3.72;;;2.40;;
69081;SDS011;56184;51.986;5.760;2023-03-01T00:28:26;3.33;;;2.55;;
69081;SDS011;56184;51.986;5.760;2023-03-01T00:30:52;3.70;;;2.35;;
69081;SDS011;56184;51.986;5.760;2023-03-01T00:33:17;3.85;;;2.30;;
69081;SDS011;56184;51.986;5.760;2023-03-01T00:35:44;3.38;;;2.22;;
69081;SDS011;56184;51.986;5.760;2023-03-01T00:38:10;3.63;;;2.92;;
69081;SDS011;56184;51.986;5.760;2023-03-01T00:40:36;4.05;;;2.28;;
69081;SDS011;56184;51.986;5.760;2023-03-01T00:43:02;4.32;;;2.53;;
69081;SDS011;56184;51.986;5.760;2023-03-01T00:45:28;7.30;;;2.80;;
69081;SDS011;56184;51.986;5.760;2023-03-01T00:47:55;4.78;;;2.63;;
69081;SDS011;56184;51.986;5.760;2023-03-01T00:50:21;3.65;;;2.58;;
69081;SDS011;56184;51.986;5.760;2023-03-01T00:52:51;2.90;;;2.60;;
69081;SDS011;56184;51.986;5.760;2023-03-01T00:55:18;5.78;;;2.70;;
69081;SDS011;56184;51.986;5.760;2023-03-01T00:57:43;4.63;;;2.70;;
69081;SDS011;56184;51.986;5.760;2023-03-01T01:00:09;3.47;;;2.80;;
69081;SDS011;56184;51.986;5.760;2023-03-01T01:02:36;5.95;;;3.20;;
69081;SDS011;56184;51.986;5.760;2023-03-01T01:05:02;5.20;;;2.90;;
69081;SDS011;56184;51.986;5.760;2023-03-01T01:07:28;3.78;;;2.60;;
69081;SDS011;56184;51.986;5.760;2023-03-01T01:09:53;5.85;;;2.80;;
69081;SDS011;56184;51.986;5.760;2023-03-01T01:12:19;5.03;;;2.60;;
69081;SDS011;56184;51.986;5.760;2023-03-01T01:14:45;4.47;;;2.90;;
69081;SDS011;56184;51.986;5.760;2023-03-01T01:17:11;5.75;;;3.00;;
69081;SDS011;56184;51.986;5.760;2023-03-01T01:19:36;4.60;;;2.80;;
69081;SDS011;56184;51.986;5.760;2023-03-01T01:22:02;4.78;;;2.63;;
69081;SDS011;56184;51.986;5.760;2023-03-01T01:24:28;5.18;;;2.83;;
69081;SDS011;56184;51.986;5.760;2023-03-01T01:26:54;3.60;;;2.70;;
69081;SDS011;56184;51.986;5.760;2023-03-01T01:29:20;4.80;;;3.13;;
69081;SDS011;56184;51.986;5.760;2023-03-01T01:31:45;3.63;;;2.72;;
69081;SDS011;56184;51.986;5.760;2023-03-01T01:34:15;5.05;;;2.95;;
69081;SDS011;56184;51.986;5.760;2023-03-01T01:36:44;4.85;;;3.00;;
69081;SDS011;56184;51.986;5.760;2023-03-01T01:39:12;3.72;;;2.72;;
69081;SDS011;56184;51.986;5.760;2023-03-01T01:41:39;4.07;;;3.00;;
69081;SDS011;56184;51.986;5.760;2023-03-01T01:44:26;4.25;;;2.83;;
69081;SDS011;56184;51.986;5.760;2023-03-01T01:47:00;4.78;;;2.90;;
69081;SDS011;56184;51.986;5.760;2023-03-01T01:49:37;5.95;;;2.83;;
69081;SDS011;56184;51.986;5.760;2023-03-01T01:57:14;6.40;;;3.03;;
69081;SDS011;56184;51.986;5.760;2023-03-01T01:59:43;4.57;;;2.78;;
69081;SDS011;56184;51.986;5.760;2023-03-01T02:02:14;3.88;;;2.72;;
69081;SDS011;56184;51.986;5.760;2023-03-01T02:04:40;3.45;;;2.58;;
69081;SDS011;56184;51.986;5.760;2023-03-01T02:07:11;3.83;;;2.60;;
69081;SDS011;56184;51.986;5.760;2023-03-01T02:09:45;4.55;;;2.67;;
69081;SDS011;56184;51.986;5.760;2023-03-01T02:12:13;5.05;;;2.80;;
69081;SDS011;56184;51.986;5.760;2023-03-01T02:14:40;4.53;;;3.08;;
69081;SDS011;56184;51.986;5.760;2023-03-01T02:17:05;7.22;;;3.08;;
69081;SDS011;56184;51.986;5.760;2023-03-01T02:19:39;4.03;;;3.08;;
69081;SDS011;56184;51.986;5.760;2023-03-01T02:22:22;4.15;;;2.88;;
69081;SDS011;56184;51.986;5.760;2023-03-01T02:30:38;4.45;;;3.22;;
69081;SDS011;56184;51.986;5.760;2023-03-01T02:33:25;6.57;;;3.15;;
69081;SDS011;56184;51.986;5.760;2023-03-01T02:35:52;4.75;;;3.50;;
69081;SDS011;56184;51.986;5.760;2023-03-01T02:38:19;4.07;;;3.10;;
69081;SDS011;56184;51.986;5.760;2023-03-01T02:40:55;5.18;;;3.25;;
69081;SDS011;56184;51.986;5.760;2023-03-01T02:43:22;5.80;;;3.30;;
69081;SDS011;56184;51.986;5.760;2023-03-01T02:45:52;5.10;;;3.53;;
69081;SDS011;56184;51.986;5.760;2023-03-01T02:48:22;4.95;;;3.15;;
69081;SDS011;56184;51.986;5.760;2023-03-01T02:53:38;4.95;;;3.17;;
69081;SDS011;56184;51.986;5.760;2023-03-01T02:56:18;3.90;;;2.72;;
69081;SDS011;56184;51.986;5.760;2023-03-01T02:58:44;5.32;;;3.30;;
69081;SDS011;56184;51.986;5.760;2023-03-01T03:01:12;6.35;;;3.17;;
69081;SDS011;56184;51.986;5.760;2023-03-01T03:03:40;5.65;;;3.20;;
69081;SDS011;56184;51.986;5.760;2023-03-01T03:06:06;5.25;;;3.30;;
69081;SDS011;56184;51.986;5.760;2023-03-01T03:08:32;5.50;;;3.17;;
69081;SDS011;56184;51.986;5.760;2023-03-01T03:10:57;5.93;;;3.42;;
69081;SDS011;56184;51.986;5.760;2023-03-01T03:13:23;9.30;;;3.40;;
69081;SDS011;56184;51.986;5.760;2023-03-01T03:15:53;4.65;;;3.28;;
69081;SDS011;56184;51.986;5.760;2023-03-01T03:18:26;5.55;;;3.15;;
69081;SDS011;56184;51.986;5.760;2023-03-01T03:20:52;5.50;;;3.30;;
69081;SDS011;56184;51.986;5.760;2023-03-01T03:23:19;5.03;;;3.20;;
69081;SDS011;56184;51.986;5.760;2023-03-01T03:25:48;6.03;;;3.40;;
69081;SDS011;56184;51.986;5.760;2023-03-01T03:28:14;5.95;;;3.00;;
69081;SDS011;56184;51.986;5.760;2023-03-01T03:30:41;4.07;;;3.20;;
69081;SDS011;56184;51.986;5.760;2023-03-01T03:33:07;5.18;;;3.42;;
69081;SDS011;56184;51.986;5.760;2023-03-01T03:35:37;6.30;;;3.20;;
69081;SDS011;56184;51.986;5.760;2023-03-01T03:38:09;4.22;;;3.08;;
69081;SDS011;56184;51.986;5.760;2023-03-01T03:40:44;3.65;;;2.90;;
69081;SDS011;56184;51.986;5.760;2023-03-01T03:43:16;3.92;;;3.03;;
69081;SDS011;56184;51.986;5.760;2023-03-01T03:45:44;5.70;;;3.55;;
69081;SDS011;56184;51.986;5.760;2023-03-01T03:48:14;5.13;;;3.40;;
69081;SDS011;56184;51.986;5.760;2023-03-01T03:50:40;4.20;;;3.00;;
69081;SDS011;56184;51.986;5.760;2023-03-01T03:53:11;4.65;;;3.30;;
69081;SDS011;56184;51.986;5.760;2023-03-01T03:55:37;5.13;;;3.40;;
69081;SDS011;56184;51.986;5.760;2023-03-01T03:58:08;4.28;;;3.22;;
69081;SDS011;56184;51.986;5.760;2023-03-01T04:00:36;6.10;;;3.50;;
69081;SDS011;56184;51.986;5.760;2023-03-01T04:03:06;4.88;;;3.20;;
69081;SDS011;56184;51.986;5.760;2023-03-01T04:05:33;6.85;;;3.60;;
69081;SDS011;56184;51.986;5.760;2023-03-01T04:07:59;5.85;;;3.53;;
69081;SDS011;56184;51.986;5.760;2023-03-01T04:10:33;6.32;;;3.42;;
69081;SDS011;56184;51.986;5.760;2023-03-01T04:13:04;7.18;;;3.55;;
69081;SDS011;56184;51.986;5.760;2023-03-01T04:15:31;5.55;;;3.70;;
69081;SDS011;56184;51.986;5.760;2023-03-01T04:17:58;8.43;;;3.80;;
69081;SDS011;56184;51.986;5.760;2023-03-01T04:20:25;6.63;;;4.10;;
69081;SDS011;56184;51.986;5.760;2023-03-01T04:25:23;8.80;;;3.85;;
69081;SDS011;56184;51.986;5.760;2023-03-01T04:27:49;9.95;;;4.60;;
69081;SDS011;56184;51.986;5.760;2023-03-01T04:30:15;6.05;;;3.88;;
69081;SDS011;56184;51.986;5.760;2023-03-01T04:32:41;6.40;;;3.97;;
69081;SDS011;56184;51.986;5.760;2023-03-01T04:35:08;6.53;;;3.78;;
69081;SDS011;56184;51.986;5.760;2023-03-01T04:37:33;5.88;;;4.03;;
69081;SDS011;56184;51.986;5.760;2023-03-01T04:40:00;5.10;;;3.92;;
69081;SDS011;56184;51.986;5.760;2023-03-01T04:42:26;5.97;;;3.95;;
69081;SDS011;56184;51.986;5.760;2023-03-01T04:44:51;9.90;;;4.05;;
69081;SDS011;56184;51.986;5.760;2023-03-01T04:47:22;5.88;;;4.10;;
69081;SDS011;56184;51.986;5.760;2023-03-01T04:49:48;6.20;;;4.03;;
69081;SDS011;56184;51.986;5.760;2023-03-01T04:52:13;5.40;;;4.03;;
69081;SDS011;56184;51.986;5.760;2023-03-01T04:54:39;8.00;;;4.05;;
69081;SDS011;56184;51.986;5.760;2023-03-01T04:57:04;7.82;;;4.38;;
69081;SDS011;56184;51.986;5.760;2023-03-01T04:59:34;6.03;;;4.10;;
69081;SDS011;56184;51.986;5.760;2023-03-01T05:02:01;5.45;;;3.70;;
69081;SDS011;56184;51.986;5.760;2023-03-01T05:04:26;6.78;;;4.20;;
69081;SDS011;56184;51.986;5.760;2023-03-01T05:06:52;6.18;;;3.88;;
69081;SDS011;56184;51.986;5.760;2023-03-01T05:09:18;5.53;;;3.67;;
69081;SDS011;56184;51.986;5.760;2023-03-01T05:11:44;8.65;;;4.25;;
69081;SDS011;56184;51.986;5.760;2023-03-01T05:14:10;5.25;;;3.80;;
69081;SDS011;56184;51.986;5.760;2023-03-01T05:16:35;5.80;;;4.05;;
69081;SDS011;56184;51.986;5.760;2023-03-01T05:19:02;6.85;;;4.30;;
69081;SDS011;56184;51.986;5.760;2023-03-01T05:21:37;8.38;;;4.20;;
69081;SDS011;56184;51.986;5.760;2023-03-01T05:24:26;6.20;;;4.20;;
69081;SDS011;56184;51.986;5.760;2023-03-01T05:26:52;9.48;;;4.00;;
69081;SDS011;56184;51.986;5.760;2023-03-01T05:29:18;5.85;;;3.67;;
69081;SDS011;56184;51.986;5.760;2023-03-01T05:31:52;7.03;;;4.32;;
69081;SDS011;56184;51.986;5.760;2023-03-01T05:34:18;5.47;;;3.83;;
69081;SDS011;56184;51.986;5.760;2023-03-01T05:36:47;6.57;;;4.20;;
69081;SDS011;56184;51.986;5.760;2023-03-01T05:39:13;7.50;;;3.72;;
69081;SDS011;56184;51.986;5.760;2023-03-01T05:41:39;8.15;;;4.20;;
69081;SDS011;56184;51.986;5.760;2023-03-01T05:44:08;5.68;;;3.88;;
69081;SDS011;56184;51.986;5.760;2023-03-01T05:46:34;5.82;;;4.10;;
69081;SDS011;56184;51.986;5.760;2023-03-01T05:48:59;7.47;;;4.18;;
69081;SDS011;56184;51.986;5.760;2023-03-01T05:51:25;7.07;;;4.35;;
69081;SDS011;56184;51.986;5.760;2023-03-01T05:54:06;5.90;;;4.00;;
69081;SDS011;56184;51.986;5.760;2023-03-01T05:56:57;6.40;;;4.30;;
69081;SDS011;56184;51.986;5.760;2023-03-01T05:59:25;8.80;;;4.80;;
69081;SDS011;56184;51.986;5.760;2023-03-01T06:01:51;5.45;;;3.90;;
69081;SDS011;56184;51.986;5.760;2023-03-01T06:04:17;6.70;;;4.55;;
69081;SDS011;56184;51.986;5.760;2023-03-01T06:06:46;6.18;;;4.05;;
69081;SDS011;56184;51.986;5.760;2023-03-01T06:09:11;8.85;;;4.13;;
69081;SDS011;56184;51.986;5.760;2023-03-01T06:11:37;6.57;;;4.20;;
69081;SDS011;56184;51.986;5.760;2023-03-01T06:14:03;7.50;;;4.43;;
69081;SDS011;56184;51.986;5.760;2023-03-01T06:16:29;8.23;;;4.47;;
69081;SDS011;56184;51.986;5.760;2023-03-01T06:18:54;6.70;;;4.25;;
69081;SDS011;56184;51.986;5.760;2023-03-01T06:21:20;7.03;;;4.32;;
69081;SDS011;56184;51.986;5.760;2023-03-01T06:24:04;6.70;;;4.35;;
69081;SDS011;56184;51.986;5.760;2023-03-01T06:26:32;5.65;;;3.85;;
69081;SDS011;56184;51.986;5.760;2023-03-01T06:32:23;6.75;;;3.95;;
69081;SDS011;56184;51.986;5.760;2023-03-01T06:34:49;6.70;;;4.00;;
69081;SDS011;56184;51.986;5.760;2023-03-01T06:37:15;6.85;;;4.25;;
69081;SDS011;56184;51.986;5.760;2023-03-01T06:39:40;9.73;;;4.65;;
69081;SDS011;56184;51.986;5.760;2023-03-01T06:42:07;6.85;;;4.03;;
69081;SDS011;56184;51.986;5.760;2023-03-01T06:44:34;6.85;;;3.75;;
69081;SDS011;56184;51.986;5.760;2023-03-01T06:47:00;5.72;;;4.00;;
69081;SDS011;56184;51.986;5.760;2023-03-01T06:49:26;7.20;;;4.15;;
69081;SDS011;56184;51.986;5.760;2023-03-01T06:51:52;6.35;;;4.00;;
69081;SDS011;56184;51.986;5.760;2023-03-01T06:54:18;6.43;;;4.30;;
69081;SDS011;56184;51.986;5.760;2023-03-01T06:56:47;5.50;;;3.97;;
69081;SDS011;56184;51.986;5.760;2023-03-01T06:59:13;8.73;;;3.80;;
69081;SDS011;56184;51.986;5.760;2023-03-01T07:01:39;6.35;;;4.35;;
69081;SDS011;56184;51.986;5.760;2023-03-01T07:04:04;6.28;;;4.35;;
69081;SDS011;56184;51.986;5.760;2023-03-01T07:06:30;7.10;;;4.30;;
69081;SDS011;56184;51.986;5.760;2023-03-01T07:08:58;6.65;;;4.25;;
69081;SDS011;56184;51.986;5.760;2023-03-01T07:11:24;7.07;;;4.63;;
69081;SDS011;56184;51.986;5.760;2023-03-01T07:13:50;7.90;;;4.45;;
69081;SDS011;56184;51.986;5.760;2023-03-01T07:16:15;8.20;;;4.18;;
69081;SDS011;56184;51.986;5.760;2023-03-01T07:18:41;9.38;;;4.30;;
69081;SDS011;56184;51.986;5.760;2023-03-01T07:21:07;7.28;;;3.95;;
69081;SDS011;56184;51.986;5.760;2023-03-01T07:23:34;9.70;;;4.95;;
69081;SDS011;56184;51.986;5.760;2023-03-01T07:26:00;11.10;;;4.55;;
69081;SDS011;56184;51.986;5.760;2023-03-01T07:28:26;6.88;;;4.40;;
69081;SDS011;56184;51.986;5.760;2023-03-01T07:31:00;6.28;;;4.32;;
69081;SDS011;56184;51.986;5.760;2023-03-01T07:33:30;8.27;;;4.60;;
69081;SDS011;56184;51.986;5.760;2023-03-01T07:35:58;6.78;;;4.45;;
69081;SDS011;56184;51.986;5.760;2023-03-01T07:38:26;7.07;;;4.85;;
69081;SDS011;56184;51.986;5.760;2023-03-01T07:40:58;9.35;;;4.72;;
69081;SDS011;56184;51.986;5.760;2023-03-01T07:43:26;6.80;;;4.90;;
69081;SDS011;56184;51.986;5.760;2023-03-01T07:45:58;12.23;;;4.53;;
69081;SDS011;56184;51.986;5.760;2023-03-01T07:48:27;8.48;;;5.05;;
69081;SDS011;56184;51.986;5.760;2023-03-01T07:50:53;7.25;;;4.47;;
69081;SDS011;56184;51.986;5.760;2023-03-01T07:53:19;6.75;;;5.00;;
69081;SDS011;56184;51.986;5.760;2023-03-01T07:55:44;10.57;;;5.55;;
69081;SDS011;56184;51.986;5.760;2023-03-01T07:58:10;8.75;;;5.22;;
69081;SDS011;56184;51.986;5.760;2023-03-01T08:00:42;8.05;;;5.28;;
69081;SDS011;56184;51.986;5.760;2023-03-01T08:03:07;7.47;;;4.97;;
69081;SDS011;56184;51.986;5.760;2023-03-01T08:05:33;9.27;;;5.43;;
69081;SDS011;56184;51.986;5.760;2023-03-01T08:07:58;11.13;;;5.05;;
69081;SDS011;56184;51.986;5.760;2023-03-01T08:10:27;7.88;;;5.15;;
69081;SDS011;56184;51.986;5.760;2023-03-01T08:12:53;12.40;;;5.43;;
69081;SDS011;56184;51.986;5.760;2023-03-01T08:15:18;8.80;;;5.38;;
69081;SDS011;56184;51.986;5.760;2023-03-01T08:17:44;9.05;;;5.03;;
69081;SDS011;56184;51.986;5.760;2023-03-01T08:20:12;10.05;;;5.47;;
69081;SDS011;56184;51.986;5.760;2023-03-01T08:22:38;9.10;;;5.70;;
69081;SDS011;56184;51.986;5.760;2023-03-01T08:25:03;9.23;;;5.40;;
69081;SDS011;56184;51.986;5.760;2023-03-01T08:27:29;8.52;;;5.30;;
69081;SDS011;56184;51.986;5.760;2023-03-01T08:29:55;9.20;;;5.57;;
69081;SDS011;56184;51.986;5.760;2023-03-01T08:32:20;8.43;;;5.63;;
69081;SDS011;56184;51.986;5.760;2023-03-01T08:34:46;13.65;;;5.72;;
69081;SDS011;56184;51.986;5.760;2023-03-01T08:37:12;8.38;;;5.20;;
69081;SDS011;56184;51.986;5.760;2023-03-01T08:39:41;8.68;;;5.20;;
69081;SDS011;56184;51.986;5.760;2023-03-01T08:42:07;14.05;;;5.25;;
69081;SDS011;56184;51.986;5.760;2023-03-01T08:44:32;12.68;;;5.65;;
69081;SDS011;56184;51.986;5.760;2023-03-01T08:46:59;12.77;;;5.32;;
69081;SDS011;56184;51.986;5.760;2023-03-01T08:49:27;8.05;;;5.30;;
69081;SDS011;56184;51.986;5.760;2023-03-01T08:51:54;8.35;;;4.97;;
69081;SDS011;56184;51.986;5.760;2023-03-01T08:54:20;7.05;;;4.93;;
69081;SDS011;56184;51.986;5.760;2023-03-01T08:56:46;9.98;;;5.10;;
69081;SDS011;56184;51.986;5.760;2023-03-01T08:59:14;8.82;;;5.30;;
69081;SDS011;56184;51.986;5.760;2023-03-01T09:01:40;8.68;;;5.22;;
69081;SDS011;56184;51.986;5.760;2023-03-01T09:04:08;8.20;;;4.60;;
69081;SDS011;56184;51.986;5.760;2023-03-01T09:06:34;5.72;;;4.22;;
69081;SDS011;56184;51.986;5.760;2023-03-01T09:09:01;6.68;;;3.97;;
69081;SDS011;56184;51.986;5.760;2023-03-01T09:11:27;6.72;;;4.47;;
69081;SDS011;56184;51.986;5.760;2023-03-01T09:13:54;6.55;;;4.45;;
69081;SDS011;56184;51.986;5.760;2023-03-01T09:16:20;7.13;;;4.38;;
69081;SDS011;56184;51.986;5.760;2023-03-01T09:18:50;8.18;;;4.35;;
69081;SDS011;56184;51.986;5.760;2023-03-01T09:21:17;7.53;;;4.15;;
69081;SDS011;56184;51.986;5.760;2023-03-01T09:23:44;6.80;;;4.13;;
69081;SDS011;56184;51.986;5.760;2023-03-01T09:26:12;6.93;;;4.18;;
69081;SDS011;56184;51.986;5.760;2023-03-01T09:28:41;5.40;;;3.78;;
69081;SDS011;56184;51.986;5.760;2023-03-01T09:31:07;8.23;;;3.80;;
69081;SDS011;56184;51.986;5.760;2023-03-01T09:33:33;7.35;;;3.65;;
69081;SDS011;56184;51.986;5.760;2023-03-01T09:35:59;6.28;;;3.30;;
69081;SDS011;56184;51.986;5.760;2023-03-01T09:38:27;6.82;;;3.78;;
69081;SDS011;56184;51.986;5.760;2023-03-01T09:40:53;6.28;;;3.53;;
69081;SDS011;56184;51.986;5.760;2023-03-01T09:45:48;4.55;;;3.30;;
69081;SDS011;56184;51.986;5.760;2023-03-01T09:48:18;6.22;;;3.63;;
69081;SDS011;56184;51.986;5.760;2023-03-01T09:50:49;5.28;;;2.75;;
69081;SDS011;56184;51.986;5.760;2023-03-01T09:53:16;5.57;;;2.53;;
69081;SDS011;56184;51.986;5.760;2023-03-01T09:56:00;6.07;;;3.08;;
69081;SDS011;56184;51.986;5.760;2023-03-01T10:09:39;8.05;;;2.80;;
69081;SDS011;56184;51.986;5.760;2023-03-01T10:12:10;5.38;;;2.80;;
69081;SDS011;56184;51.986;5.760;2023-03-01T10:20:17;4.57;;;3.10;;
69081;SDS011;56184;51.986;5.760;2023-03-01T10:22:51;4.95;;;3.45;;
69081;SDS011;56184;51.986;5.760;2023-03-01T10:31:16;5.15;;;3.50;;
69081;SDS011;56184;51.986;5.760;2023-03-01T10:33:47;8.02;;;4.32;;
69081;SDS011;56184;51.986;5.760;2023-03-01T10:36:16;7.65;;;4.32;;
69081;SDS011;56184;51.986;5.760;2023-03-01T10:38:49;6.47;;;4.20;;
69081;SDS011;56184;51.986;5.760;2023-03-01T10:41:18;7.47;;;4.53;;
69081;SDS011;56184;51.986;5.760;2023-03-01T10:43:46;8.85;;;5.00;;
69081;SDS011;56184;51.986;5.760;2023-03-01T10:46:30;6.75;;;4.40;;
69081;SDS011;56184;51.986;5.760;2023-03-01T10:49:07;6.47;;;3.53;;
69081;SDS011;56184;51.986;5.760;2023-03-01T10:51:47;3.80;;;2.75;;
69081;SDS011;56184;51.986;5.760;2023-03-01T10:54:33;7.43;;;4.50;;
69081;SDS011;56184;51.986;5.760;2023-03-01T10:57:00;6.40;;;3.97;;
69081;SDS011;56184;51.986;5.760;2023-03-01T10:59:31;5.38;;;3.63;;
69081;SDS011;56184;51.986;5.760;2023-03-01T11:05:25;2.45;;;1.38;;
69081;SDS011;56184;51.986;5.760;2023-03-01T11:13:06;6.40;;;3.90;;
69081;SDS011;56184;51.986;5.760;2023-03-01T11:15:39;5.25;;;3.50;;
69081;SDS011;56184;51.986;5.760;2023-03-01T11:18:05;5.03;;;3.42;;
69081;SDS011;56184;51.986;5.760;2023-03-01T11:20:46;4.28;;;2.90;;
69081;SDS011;56184;51.986;5.760;2023-03-01T11:23:16;5.63;;;3.58;;
69081;SDS011;56184;51.986;5.760;2023-03-01T11:25:43;5.13;;;3.10;;
69081;SDS011;56184;51.986;5.760;2023-03-01T11:28:14;5.43;;;3.17;;
69081;SDS011;56184;51.986;5.760;2023-03-01T11:31:03;4.47;;;3.33;;
69081;SDS011;56184;51.986;5.760;2023-03-01T11:36:13;5.25;;;3.40;;
69081;SDS011;56184;51.986;5.760;2023-03-01T11:38:47;3.40;;;3.10;;
69081;SDS011;56184;51.986;5.760;2023-03-01T11:43:59;2.28;;;1.88;;
69081;SDS011;56184;51.986;5.760;2023-03-01T11:51:45;3.80;;;2.58;;
69081;SDS011;56184;51.986;5.760;2023-03-01T11:57:26;2.85;;;2.47;;
69081;SDS011;56184;51.986;5.760;2023-03-01T12:00:19;2.97;;;2.40;;
69081;SDS011;56184;51.986;5.760;2023-03-01T12:22:48;4.10;;;2.65;;
69081;SDS011;56184;51.986;5.760;2023-03-01T12:25:53;3.60;;;2.50;;
69081;SDS011;56184;51.986;5.760;2023-03-01T12:39:43;3.28;;;2.40;;
69081;SDS011;56184;51.986;5.760;2023-03-01T12:45:25;6.35;;;2.53;;
69081;SDS011;56184;51.986;5.760;2023-03-01T12:50:34;5.93;;;2.80;;
69081;SDS011;56184;51.986;5.760;2023-03-01T12:53:47;3.33;;;2.42;;
69081;SDS011;56184;51.986;5.760;2023-03-01T12:56:07;3.58;;;2.53;;
69081;SDS011;56184;51.986;5.760;2023-03-01T13:04:18;4.25;;;2.65;;
69081;SDS011;56184;51.986;5.760;2023-03-01T13:10:06;3.53;;;2.83;;
69081;SDS011;56184;51.986;5.760;2023-03-01T13:13:02;4.07;;;3.10;;
69081;SDS011;56184;51.986;5.760;2023-03-01T13:15:37;3.53;;;3.03;;
69081;SDS011;56184;51.986;5.760;2023-03-01T13:33:42;4.82;;;2.85;;
69081;SDS011;56184;51.986;5.760;2023-03-01T13:41:53;2.65;;;2.08;;
69081;SDS011;56184;51.986;5.760;2023-03-01T13:46:52;4.15;;;2.95;;
69081;SDS011;56184;51.986;5.760;2023-03-01T13:49:25;4.75;;;3.10;;
69081;SDS011;56184;51.986;5.760;2023-03-01T13:51:53;3.20;;;2.58;;
69081;SDS011;56184;51.986;5.760;2023-03-01T13:54:24;6.90;;;3.38;;
69081;SDS011;56184;51.986;5.760;2023-03-01T13:56:53;3.58;;;2.70;;
69081;SDS011;56184;51.986;5.760;2023-03-01T13:59:21;4.03;;;3.03;;
69081;SDS011;56184;51.986;5.760;2023-03-01T14:01:57;2.13;;;1.33;;
69081;SDS011;56184;51.986;5.760;2023-03-01T14:04:28;2.65;;;2.40;;
69081;SDS011;56184;51.986;5.760;2023-03-01T14:07:12;4.65;;;2.15;;
69081;SDS011;56184;51.986;5.760;2023-03-01T14:09:42;5.78;;;3.20;;
69081;SDS011;56184;51.986;5.760;2023-03-01T14:17:28;4.35;;;2.63;;
69081;SDS011;56184;51.986;5.760;2023-03-01T14:19:56;6.57;;;2.95;;
69081;SDS011;56184;51.986;5.760;2023-03-01T14:22:24;3.50;;;2.25;;
69081;SDS011;56184;51.986;5.760;2023-03-01T14:24:57;3.63;;;3.03;;
69081;SDS011;56184;51.986;5.760;2023-03-01T14:27:37;2.53;;;2.15;;
69081;SDS011;56184;51.986;5.760;2023-03-01T14:30:14;4.47;;;2.78;;
69081;SDS011;56184;51.986;5.760;2023-03-01T14:32:56;2.83;;;2.42;;
69081;SDS011;56184;51.986;5.760;2023-03-01T14:35:30;4.13;;;2.67;;
69081;SDS011;56184;51.986;5.760;2023-03-01T14:37:58;4.03;;;2.88;;
69081;SDS011;56184;51.986;5.760;2023-03-01T14:40:26;5.32;;;2.90;;
69081;SDS011;56184;51.986;5.760;2023-03-01T14:42:58;5.63;;;2.40;;
69081;SDS011;56184;51.986;5.760;2023-03-01T14:45:27;3.30;;;2.83;;
69081;SDS011;56184;51.986;5.760;2023-03-01T14:47:55;5.15;;;3.10;;
69081;SDS011;56184;51.986;5.760;2023-03-01T14:50:29;4.78;;;2.78;;
69081;SDS011;56184;51.986;5.760;2023-03-01T14:52:58;5.25;;;2.83;;
69081;SDS011;56184;51.986;5.760;2023-03-01T14:55:29;3.75;;;3.00;;
69081;SDS011;56184;51.986;5.760;2023-03-01T14:57:55;8.85;;;3.17;;
69081;SDS011;56184;51.986;5.760;2023-03-01T15:00:26;2.53;;;1.58;;
69081;SDS011;56184;51.986;5.760;2023-03-01T15:02:54;6.25;;;2.97;;
69081;SDS011;56184;51.986;5.760;2023-03-01T15:05:29;5.38;;;3.00;;
69081;SDS011;56184;51.986;5.760;2023-03-01T15:07:59;5.40;;;2.58;;
69081;SDS011;56184;51.986;5.760;2023-03-01T15:10:28;2.72;;;1.63;;
69081;SDS011;56184;51.986;5.760;2023-03-01T15:12:56;3.45;;;2.67;;
69081;SDS011;56184;51.986;5.760;2023-03-01T15:16:02;3.90;;;2.80;;
69081;SDS011;56184;51.986;5.760;2023-03-01T15:18:34;1.85;;;1.33;;
69081;SDS011;56184;51.986;5.760;2023-03-01T15:23:50;4.22;;;2.97;;
69081;SDS011;56184;51.986;5.760;2023-03-01T15:26:27;5.13;;;2.75;;
69081;SDS011;56184;51.986;5.760;2023-03-01T15:29:00;4.65;;;2.70;;
69081;SDS011;56184;51.986;5.760;2023-03-01T15:31:32;5.00;;;2.45;;
69081;SDS011;56184;51.986;5.760;2023-03-01T15:36:48;3.72;;;2.63;;
69081;SDS011;56184;51.986;5.760;2023-03-01T15:41:53;4.28;;;2.85;;
69081;SDS011;56184;51.986;5.760;2023-03-01T15:44:30;3.60;;;2.63;;
69081;SDS011;56184;51.986;5.760;2023-03-01T15:46:57;2.90;;;2.22;;
69081;SDS011;56184;51.986;5.760;2023-03-01T15:49:35;4.68;;;2.60;;
69081;SDS011;56184;51.986;5.760;2023-03-01T15:52:05;6.18;;;2.80;;
69081;SDS011;56184;51.986;5.760;2023-03-01T15:54:53;4.90;;;2.55;;
69081;SDS011;56184;51.986;5.760;2023-03-01T15:57:30;3.65;;;2.78;;
69081;SDS011;56184;51.986;5.760;2023-03-01T16:00:02;5.25;;;2.50;;
69081;SDS011;56184;51.986;5.760;2023-03-01T16:02:36;5.88;;;2.92;;
69081;SDS011;56184;51.986;5.760;2023-03-01T16:05:02;5.93;;;2.45;;
69081;SDS011;56184;51.986;5.760;2023-03-01T16:07:28;4.75;;;2.10;;
69081;SDS011;56184;51.986;5.760;2023-03-01T16:09:55;5.03;;;2.30;;
69081;SDS011;56184;51.986;5.760;2023-03-01T16:12:21;4.50;;;2.53;;
69081;SDS011;56184;51.986;5.760;2023-03-01T16:14:49;3.42;;;2.40;;
69081;SDS011;56184;51.986;5.760;2023-03-01T16:17:15;2.10;;;1.40;;
69081;SDS011;56184;51.986;5.760;2023-03-01T16:19:41;4.00;;;2.47;;
69081;SDS011;56184;51.986;5.760;2023-03-01T16:22:06;4.85;;;2.28;;
69081;SDS011;56184;51.986;5.760;2023-03-01T16:24:34;5.65;;;2.50;;
69081;SDS011;56184;51.986;5.760;2023-03-01T16:27:01;2.65;;;1.65;;
69081;SDS011;56184;51.986;5.760;2023-03-01T16:29:27;4.43;;;2.10;;
69081;SDS011;56184;51.986;5.760;2023-03-01T16:31:54;2.08;;;1.35;;
69081;SDS011;56184;51.986;5.760;2023-03-01T16:34:19;3.08;;;1.98;;
69081;SDS011;56184;51.986;5.760;2023-03-01T16:36:46;3.75;;;2.38;;
69081;SDS011;56184;51.986;5.760;2023-03-01T16:39:12;3.95;;;2.40;;
69081;SDS011;56184;51.986;5.760;2023-03-01T16:41:38;3.58;;;2.30;;
69081;SDS011;56184;51.986;5.760;2023-03-01T16:44:03;3.53;;;2.20;;
69081;SDS011;56184;51.986;5.760;2023-03-01T16:46:29;2.95;;;2.33;;
69081;SDS011;56184;51.986;5.760;2023-03-01T16:48:55;4.20;;;2.30;;
69081;SDS011;56184;51.986;5.760;2023-03-01T16:51:21;5.55;;;2.28;;
69081;SDS011;56184;51.986;5.760;2023-03-01T16:53:49;3.90;;;2.60;;
69081;SDS011;56184;51.986;5.760;2023-03-01T16:56:15;4.97;;;2.58;;
69081;SDS011;56184;51.986;5.760;2023-03-01T16:58:41;3.17;;;2.10;;
69081;SDS011;56184;51.986;5.760;2023-03-01T17:01:11;4.30;;;2.55;;
69081;SDS011;56184;51.986;5.760;2023-03-01T17:03:39;3.60;;;2.40;;
69081;SDS011;56184;51.986;5.760;2023-03-01T17:06:06;5.05;;;2.22;;
69081;SDS011;56184;51.986;5.760;2023-03-01T17:08:33;4.20;;;2.30;;
69081;SDS011;56184;51.986;5.760;2023-03-01T17:11:08;3.97;;;2.33;;
69081;SDS011;56184;51.986;5.760;2023-03-01T17:13:36;4.22;;;2.70;;
69081;SDS011;56184;51.986;5.760;2023-03-01T17:16:04;4.55;;;2.65;;
69081;SDS011;56184;51.986;5.760;2023-03-01T17:18:31;3.85;;;2.67;;
69081;SDS011;56184;51.986;5.760;2023-03-01T17:20:57;3.17;;;2.10;;
69081;SDS011;56184;51.986;5.760;2023-03-01T17:23:23;5.57;;;3.25;;
69081;SDS011;56184;51.986;5.760;2023-03-01T17:25:49;4.55;;;2.90;;
69081;SDS011;56184;51.986;5.760;2023-03-01T17:28:14;5.00;;;2.97;;
69081;SDS011;56184;51.986;5.760;2023-03-01T17:30:40;3.50;;;2.55;;